Airfield :







YOU CAN JOIN US ON...

 
LOGIN :

Register | Disclaimer

   EN    FR    IT 

 









Legend :    VFR   Marginal VFR   IFR   Intensive IFR   Very Intensive IFR
Visi :
Ceiling :
>= 8 km
>= 3000ft
5 to 8 km
1000 to 3000 ft
1500m to 5 km
500 to 1000 ft
800 to 1500m
200 to 500 ft
< 800m
< 200 ft
Symbols :   Thunderstorms  Fog  Heavy snow  Heavy precipitations  Wind > 20 kt







- Airport Elevation : 76 ft
- IATA code : PWM


KPWM - Portland International Jetport

CURRENT METAR :
  • 231351Z 31020G32KT 10SM SCT035 BKN100 04/M03 A2936 RMK AO2 PK WND 31035/1334 SLP944 T00441033

EXPIRED METARs :
  • 231251Z 30020G28KT 10SM FEW035 BKN100 BKN200 06/M02 A2931 RMK AO2 PK WND 31031/1155 SLP925 T00561017
  • 231151Z 31015G23KT 10SM FEW049 BKN080 04/M01 A2927 RMK AO2 SLP911 60004 70077 T00441006 10044 20017 53042

TAF KPWM
Valid from the 23 at 12:00 until the 24 at 12:00 UTC


231120Z 2312/2412 29016KT P6SM -SHRASN OVC035
FM231300 30013G24KT P6SM BKN070
FM231400 31017G32KT P6SM SCT200
FM240300 30006KT P6SM FEW250
KZBW FIR / North America



MET'MAP, your aeronautical weather chart ! - Copyright ORBIFLY December 2007 - Disclaimer

ORBIFLY MET'MAP TEAM :

Programming & Development : Alexandra Zaïnal
Concept & Development : Baudouin d'Aumeries
Co-Development & Prog : Marc-Olivier Méhu
Technical & hardware support : Manuel Goepfert

Contact : metmap@orbifly.com




SOURCES & CREDITS :

   NOAA